首页
METAR-TAF:

METAR-TAF

机场 :

卡塞尔, 德国

纬度: 51-24N, 经度: 009-23E, 海拔: 277米

当前天气观测

该预报发布于5小时和14分钟前的22:20 UTC
风速5节,风向南转南东,在东南南转西南之间变化
温度 4°C
湿度 87%
气压 1003 hPa
能见度10公里或以上
散云层高于1000英尺
阴天层高于1500英尺

METAR: EDVK 132220Z 16005KT 140V210 9999 SCT010 OVC015 04/02 Q1003

时间: 04:34 (03:34 UTC)

预报

该预报发布于7小时和34分钟前的20:00 UTC
预报有效从13日的 21点(UTC)到 14日的 03点(UTC)
风速8节,风向
能见度10公里或以上
多云层高于1500英尺
几率 30% :
短暂存在
从 13日的 21点(UTC)到 14日的 03点(UTC)
多云层高于1000英尺

TAF: EDVK 132000Z 1321/1403 17008KT 9999 BKN015 PROB30 TEMPO 1321/1403 BKN010

超过4000个机场的气象观测和天气预报(METAR&TAF报告)。

可查询的气象台以黄色和红色小点在地图上表示。

将鼠标移到小点上方,可查看气象台名称。

然后点击查看天气观测和预报。

如需切换地图:点击带黑十字的绿色按钮放大地图;点击带横线的绿色按钮缩小地图;或者点击绿色箭头查看邻近地区的地图。


METAR-TAF: